Lambert St Louis International Airport
KSTL : now visible

Airfield :











YOU CAN JOIN US ON...

 
LOGIN :

Register | Disclaimer

   EN    FR    IT 

 









Legend :    VFR   Marginal VFR   IFR   Intensive IFR   Very Intensive IFR
Visi :
Ceiling :
>= 8 km
>= 3000ft
5 to 8 km
1000 to 3000 ft
1500m to 5 km
500 to 1000 ft
800 to 1500m
200 to 500 ft
< 800m
< 200 ft
Symbols :   Thunderstorms  Fog  Heavy snow  Heavy precipitations  Wind > 20 kt







- Airport Elevation : 618 ft
- IATA code : STL


KSTL - Lambert St Louis International

CURRENT METAR :
  • 210451Z 00000KT 9SM CLR 11/02 A2992 RMK AO2 SLP131 T01060017

EXPIRED METARs :
  • 210351Z 00000KT 10SM CLR 11/02 A2991 RMK AO2 SLP126 T01110017
  • 210251Z 00000KT 10SM CLR 12/01 A2990 RMK AO2 SLP125 T01220011 53006

TAF KSTL
Valid from the 21 at 03:00 until the 22 at 06:00 UTC


210300Z 2103/2206 VRB04KT P6SM SKC
FM211600 17012G19KT P6SM SKC
FM220000 17008KT P6SM BKN200
KZKC FIR / North America



MET'MAP, your aeronautical weather chart ! - Copyright ORBIFLY December 2007 - Disclaimer

ORBIFLY MET'MAP TEAM :

Programming & Development : Alexandra Zaïnal
Concept & Development : Baudouin d'Aumeries
Co-Development & Prog : Marc-Olivier Méhu
Technical & hardware support : Manuel Goepfert

Contact : metmap@orbifly.com




SOURCES & CREDITS :

   NOAA       Earth
Advisory